sensor_id;sensor_type;location;lat;lon;timestamp;pressure;altitude;pressure_sealevel;temperature;humidity
13867;BME280;7003;46.982;15.248;2023-11-19T00:01:39;97711.28;;;0.92;100.00
13867;BME280;7003;46.982;15.248;2023-11-19T00:04:07;97709.41;;;0.87;100.00
13867;BME280;7003;46.982;15.248;2023-11-19T00:06:37;97689.88;;;1.00;100.00
13867;BME280;7003;46.982;15.248;2023-11-19T00:09:09;97698.72;;;0.94;100.00
13867;BME280;7003;46.982;15.248;2023-11-19T00:11:38;97705.53;;;0.95;100.00
13867;BME280;7003;46.982;15.248;2023-11-19T00:14:07;97704.25;;;0.97;100.00
13867;BME280;7003;46.982;15.248;2023-11-19T00:16:34;97708.84;;;1.17;100.00
13867;BME280;7003;46.982;15.248;2023-11-19T00:19:02;97715.88;;;1.06;100.00
13867;BME280;7003;46.982;15.248;2023-11-19T00:21:32;97712.38;;;1.01;100.00
13867;BME280;7003;46.982;15.248;2023-11-19T00:24:02;97707.94;;;1.01;100.00
13867;BME280;7003;46.982;15.248;2023-11-19T00:26:34;97704.34;;;1.07;100.00
13867;BME280;7003;46.982;15.248;2023-11-19T00:29:01;97697.78;;;1.10;100.00
13867;BME280;7003;46.982;15.248;2023-11-19T00:31:31;97698.38;;;1.17;100.00
13867;BME280;7003;46.982;15.248;2023-11-19T00:33:59;97700.47;;;1.15;100.00
13867;BME280;7003;46.982;15.248;2023-11-19T00:36:25;97705.44;;;1.16;100.00
13867;BME280;7003;46.982;15.248;2023-11-19T00:38:55;97704.72;;;1.21;100.00
13867;BME280;7003;46.982;15.248;2023-11-19T00:41:23;97693.97;;;1.23;100.00
13867;BME280;7003;46.982;15.248;2023-11-19T00:43:55;97691.38;;;1.28;100.00
13867;BME280;7003;46.982;15.248;2023-11-19T00:46:22;97684.00;;;1.25;100.00
13867;BME280;7003;46.982;15.248;2023-11-19T00:48:52;97681.47;;;1.35;100.00
13867;BME280;7003;46.982;15.248;2023-11-19T00:51:19;97683.22;;;1.61;100.00
13867;BME280;7003;46.982;15.248;2023-11-19T00:53:54;97671.41;;;1.64;100.00
13867;BME280;7003;46.982;15.248;2023-11-19T00:56:21;97669.00;;;1.47;100.00
13867;BME280;7003;46.982;15.248;2023-11-19T00:58:52;97668.44;;;1.45;100.00
13867;BME280;7003;46.982;15.248;2023-11-19T01:01:21;97668.47;;;1.55;100.00
13867;BME280;7003;46.982;15.248;2023-11-19T01:03:48;97665.13;;;1.60;100.00
13867;BME280;7003;46.982;15.248;2023-11-19T01:06:26;97675.81;;;1.53;100.00
13867;BME280;7003;46.982;15.248;2023-11-19T01:08:54;97666.78;;;1.34;100.00
13867;BME280;7003;46.982;15.248;2023-11-19T01:11:25;97667.81;;;1.28;100.00
13867;BME280;7003;46.982;15.248;2023-11-19T01:13:52;97666.00;;;1.33;100.00
13867;BME280;7003;46.982;15.248;2023-11-19T01:16:21;97652.41;;;1.36;100.00
13867;BME280;7003;46.982;15.248;2023-11-19T01:18:48;97659.25;;;1.42;100.00
13867;BME280;7003;46.982;15.248;2023-11-19T01:21:16;97648.78;;;1.47;100.00
13867;BME280;7003;46.982;15.248;2023-11-19T01:23:44;97641.69;;;1.48;100.00
13867;BME280;7003;46.982;15.248;2023-11-19T01:26:12;97652.47;;;1.51;100.00
13867;BME280;7003;46.982;15.248;2023-11-19T01:28:40;97651.19;;;1.54;100.00
13867;BME280;7003;46.982;15.248;2023-11-19T01:31:15;97655.38;;;1.55;100.00
13867;BME280;7003;46.982;15.248;2023-11-19T01:33:44;97648.03;;;1.57;100.00
13867;BME280;7003;46.982;15.248;2023-11-19T01:36:13;97640.72;;;1.54;100.00
13867;BME280;7003;46.982;15.248;2023-11-19T01:38:41;97633.34;;;1.56;100.00
13867;BME280;7003;46.982;15.248;2023-11-19T01:41:10;97624.69;;;1.50;100.00
13867;BME280;7003;46.982;15.248;2023-11-19T01:43:40;97617.06;;;1.49;100.00
13867;BME280;7003;46.982;15.248;2023-11-19T01:46:08;97604.75;;;1.49;100.00
13867;BME280;7003;46.982;15.248;2023-11-19T01:48:39;97594.81;;;1.57;100.00
13867;BME280;7003;46.982;15.248;2023-11-19T01:51:09;97597.25;;;1.73;100.00
13867;BME280;7003;46.982;15.248;2023-11-19T01:53:40;97597.50;;;1.72;100.00
13867;BME280;7003;46.982;15.248;2023-11-19T01:56:09;97595.09;;;1.60;100.00
13867;BME280;7003;46.982;15.248;2023-11-19T01:58:42;97590.84;;;1.44;100.00
13867;BME280;7003;46.982;15.248;2023-11-19T02:01:13;97595.06;;;1.50;100.00
13867;BME280;7003;46.982;15.248;2023-11-19T02:03:49;97586.19;;;1.61;100.00
13867;BME280;7003;46.982;15.248;2023-11-19T02:06:20;97582.69;;;1.40;100.00
13867;BME280;7003;46.982;15.248;2023-11-19T02:08:58;97580.34;;;1.39;100.00
13867;BME280;7003;46.982;15.248;2023-11-19T02:11:29;97579.19;;;1.25;100.00
13867;BME280;7003;46.982;15.248;2023-11-19T02:14:01;97577.66;;;1.24;100.00
13867;BME280;7003;46.982;15.248;2023-11-19T02:16:32;97576.84;;;1.23;100.00
13867;BME280;7003;46.982;15.248;2023-11-19T02:19:03;97564.63;;;1.39;100.00
13867;BME280;7003;46.982;15.248;2023-11-19T02:21:33;97563.59;;;1.45;100.00
13867;BME280;7003;46.982;15.248;2023-11-19T02:24:06;97551.78;;;1.42;100.00
13867;BME280;7003;46.982;15.248;2023-11-19T02:26:39;97550.44;;;1.40;100.00
13867;BME280;7003;46.982;15.248;2023-11-19T02:29:11;97539.69;;;1.36;100.00
13867;BME280;7003;46.982;15.248;2023-11-19T02:31:42;97548.88;;;1.39;100.00
13867;BME280;7003;46.982;15.248;2023-11-19T02:34:12;97550.72;;;1.43;100.00
13867;BME280;7003;46.982;15.248;2023-11-19T02:36:40;97537.34;;;1.40;100.00
13867;BME280;7003;46.982;15.248;2023-11-19T02:39:08;97542.56;;;1.35;100.00
13867;BME280;7003;46.982;15.248;2023-11-19T02:41:38;97545.78;;;1.47;100.00
13867;BME280;7003;46.982;15.248;2023-11-19T02:44:06;97539.94;;;1.40;100.00
13867;BME280;7003;46.982;15.248;2023-11-19T02:46:35;97530.78;;;1.37;100.00
13867;BME280;7003;46.982;15.248;2023-11-19T02:49:04;97524.47;;;1.33;100.00
13867;BME280;7003;46.982;15.248;2023-11-19T02:51:32;97518.97;;;1.35;100.00
13867;BME280;7003;46.982;15.248;2023-11-19T02:54:01;97507.66;;;1.24;100.00
13867;BME280;7003;46.982;15.248;2023-11-19T02:56:30;97511.59;;;1.27;100.00
13867;BME280;7003;46.982;15.248;2023-11-19T02:59:01;97512.63;;;1.21;100.00
13867;BME280;7003;46.982;15.248;2023-11-19T03:01:38;97501.66;;;1.29;100.00
13867;BME280;7003;46.982;15.248;2023-11-19T03:04:09;97504.78;;;1.21;100.00
13867;BME280;7003;46.982;15.248;2023-11-19T03:06:40;97505.56;;;1.21;100.00
13867;BME280;7003;46.982;15.248;2023-11-19T03:09:08;97493.78;;;1.24;100.00
13867;BME280;7003;46.982;15.248;2023-11-19T03:11:37;97499.03;;;1.24;100.00
13867;BME280;7003;46.982;15.248;2023-11-19T03:14:07;97488.03;;;1.27;100.00
13867;BME280;7003;46.982;15.248;2023-11-19T03:16:38;97485.66;;;1.25;100.00
13867;BME280;7003;46.982;15.248;2023-11-19T03:19:06;97490.16;;;1.35;100.00
13867;BME280;7003;46.982;15.248;2023-11-19T03:21:36;97481.72;;;1.23;100.00
13867;BME280;7003;46.982;15.248;2023-11-19T03:24:05;97476.97;;;1.14;100.00
13867;BME280;7003;46.982;15.248;2023-11-19T03:26:34;97476.44;;;1.07;100.00
13867;BME280;7003;46.982;15.248;2023-11-19T03:29:03;97470.66;;;1.10;100.00
13867;BME280;7003;46.982;15.248;2023-11-19T03:31:32;97459.94;;;1.12;100.00
13867;BME280;7003;46.982;15.248;2023-11-19T03:34:01;97459.44;;;1.15;100.00
13867;BME280;7003;46.982;15.248;2023-11-19T03:36:36;97453.41;;;1.14;100.00
13867;BME280;7003;46.982;15.248;2023-11-19T03:39:10;97451.03;;;1.13;100.00
13867;BME280;7003;46.982;15.248;2023-11-19T03:41:45;97449.75;;;1.15;100.00
13867;BME280;7003;46.982;15.248;2023-11-19T03:44:14;97445.50;;;1.04;100.00
13867;BME280;7003;46.982;15.248;2023-11-19T03:46:44;97430.28;;;0.96;100.00
13867;BME280;7003;46.982;15.248;2023-11-19T03:49:16;97426.06;;;0.95;100.00
13867;BME280;7003;46.982;15.248;2023-11-19T03:51:43;97436.03;;;0.98;100.00
13867;BME280;7003;46.982;15.248;2023-11-19T03:54:14;97422.84;;;0.78;100.00
13867;BME280;7003;46.982;15.248;2023-11-19T03:56:42;97432.50;;;0.72;100.00
13867;BME280;7003;46.982;15.248;2023-11-19T03:59:09;97431.97;;;0.70;100.00
13867;BME280;7003;46.982;15.248;2023-11-19T04:01:39;97429.09;;;0.67;100.00
13867;BME280;7003;46.982;15.248;2023-11-19T04:04:07;97430.91;;;0.61;100.00
13867;BME280;7003;46.982;15.248;2023-11-19T04:06:36;97428.00;;;0.58;100.00
13867;BME280;7003;46.982;15.248;2023-11-19T04:09:05;97418.63;;;0.67;100.00
13867;BME280;7003;46.982;15.248;2023-11-19T04:11:32;97416.19;;;0.55;100.00
13867;BME280;7003;46.982;15.248;2023-11-19T04:14:00;97409.66;;;0.53;100.00
13867;BME280;7003;46.982;15.248;2023-11-19T04:16:29;97405.16;;;0.48;100.00
13867;BME280;7003;46.982;15.248;2023-11-19T04:18:57;97401.75;;;0.48;100.00
13867;BME280;7003;46.982;15.248;2023-11-19T04:21:27;97394.94;;;0.47;100.00
13867;BME280;7003;46.982;15.248;2023-11-19T04:23:56;97402.53;;;0.48;100.00
13867;BME280;7003;46.982;15.248;2023-11-19T04:26:23;97396.28;;;0.49;100.00
13867;BME280;7003;46.982;15.248;2023-11-19T04:28:54;97394.44;;;0.45;100.00
13867;BME280;7003;46.982;15.248;2023-11-19T04:31:21;97400.16;;;0.42;100.00
13867;BME280;7003;46.982;15.248;2023-11-19T04:33:49;97400.16;;;0.47;100.00
13867;BME280;7003;46.982;15.248;2023-11-19T04:36:20;97390.97;;;0.39;100.00
13867;BME280;7003;46.982;15.248;2023-11-19T04:38:50;97396.19;;;0.34;100.00
13867;BME280;7003;46.982;15.248;2023-11-19T04:41:19;97389.09;;;0.29;100.00
13867;BME280;7003;46.982;15.248;2023-11-19T04:43:50;97388.59;;;0.32;100.00
13867;BME280;7003;46.982;15.248;2023-11-19T04:46:17;97390.16;;;0.28;100.00
13867;BME280;7003;46.982;15.248;2023-11-19T04:48:45;97388.03;;;0.25;100.00
13867;BME280;7003;46.982;15.248;2023-11-19T04:51:15;97380.97;;;0.26;100.00
13867;BME280;7003;46.982;15.248;2023-11-19T04:53:44;97374.41;;;0.23;100.00
13867;BME280;7003;46.982;15.248;2023-11-19T04:56:12;97366.03;;;0.21;100.00
13867;BME280;7003;46.982;15.248;2023-11-19T04:58:42;97365.00;;;0.22;100.00
13867;BME280;7003;46.982;15.248;2023-11-19T05:01:13;97372.31;;;0.20;100.00
13867;BME280;7003;46.982;15.248;2023-11-19T05:03:41;97372.31;;;0.20;100.00
13867;BME280;7003;46.982;15.248;2023-11-19T05:06:10;97366.75;;;0.12;100.00
13867;BME280;7003;46.982;15.248;2023-11-19T05:08:37;97365.41;;;0.04;100.00
13867;BME280;7003;46.982;15.248;2023-11-19T05:11:06;97338.75;;;0.07;100.00
13867;BME280;7003;46.982;15.248;2023-11-19T05:13:38;97327.78;;;0.10;100.00
13867;BME280;7003;46.982;15.248;2023-11-19T05:16:08;97334.78;;;-0.01;100.00
13867;BME280;7003;46.982;15.248;2023-11-19T05:18:37;97333.47;;;0.02;100.00
13867;BME280;7003;46.982;15.248;2023-11-19T05:21:05;97323.00;;;-0.03;100.00
13867;BME280;7003;46.982;15.248;2023-11-19T05:23:32;97326.34;;;-0.08;100.00
13867;BME280;7003;46.982;15.248;2023-11-19T05:26:03;97329.00;;;-0.03;100.00
13867;BME280;7003;46.982;15.248;2023-11-19T05:28:33;97336.06;;;-0.03;100.00
13867;BME280;7003;46.982;15.248;2023-11-19T05:31:02;97337.19;;;0.06;100.00
13867;BME280;7003;46.982;15.248;2023-11-19T05:33:32;97335.94;;;0.19;100.00
13867;BME280;7003;46.982;15.248;2023-11-19T05:35:59;97341.88;;;0.09;100.00
13867;BME280;7003;46.982;15.248;2023-11-19T05:38:29;97328.53;;;0.06;100.00
13867;BME280;7003;46.982;15.248;2023-11-19T05:40:58;97336.13;;;0.07;100.00
13867;BME280;7003;46.982;15.248;2023-11-19T05:43:27;97344.47;;;0.04;100.00
13867;BME280;7003;46.982;15.248;2023-11-19T05:45:55;97332.22;;;0.10;100.00
13867;BME280;7003;46.982;15.248;2023-11-19T05:48:22;97336.44;;;0.16;100.00
13867;BME280;7003;46.982;15.248;2023-11-19T05:50:50;97336.50;;;0.26;100.00
13867;BME280;7003;46.982;15.248;2023-11-19T05:53:20;97339.34;;;0.24;100.00
13867;BME280;7003;46.982;15.248;2023-11-19T05:55:47;97321.59;;;0.26;100.00
13867;BME280;7003;46.982;15.248;2023-11-19T05:58:23;97318.69;;;0.23;100.00
13867;BME280;7003;46.982;15.248;2023-11-19T06:00:54;97312.38;;;0.19;100.00
13867;BME280;7003;46.982;15.248;2023-11-19T06:03:22;97311.19;;;0.47;100.00
13867;BME280;7003;46.982;15.248;2023-11-19T06:05:51;97305.38;;;0.29;100.00
13867;BME280;7003;46.982;15.248;2023-11-19T06:08:22;97295.66;;;0.20;100.00
13867;BME280;7003;46.982;15.248;2023-11-19T06:10:50;97299.03;;;0.15;100.00
13867;BME280;7003;46.982;15.248;2023-11-19T06:13:18;97299.81;;;0.16;100.00
13867;BME280;7003;46.982;15.248;2023-11-19T06:15:48;97294.56;;;0.16;100.00
13867;BME280;7003;46.982;15.248;2023-11-19T06:18:19;97295.38;;;0.16;100.00
13867;BME280;7003;46.982;15.248;2023-11-19T06:20:47;97291.72;;;0.17;100.00
13867;BME280;7003;46.982;15.248;2023-11-19T06:23:17;97292.53;;;0.23;100.00
13867;BME280;7003;46.982;15.248;2023-11-19T06:25:48;97310.00;;;0.12;100.00
13867;BME280;7003;46.982;15.248;2023-11-19T06:28:16;97305.47;;;-0.03;100.00
13867;BME280;7003;46.982;15.248;2023-11-19T06:30:44;97306.81;;;0.05;100.00
13867;BME280;7003;46.982;15.248;2023-11-19T06:33:13;97295.56;;;-0.01;100.00
13867;BME280;7003;46.982;15.248;2023-11-19T06:35:43;97290.81;;;-0.04;100.00
13867;BME280;7003;46.982;15.248;2023-11-19T06:38:14;97287.31;;;0.23;100.00
13867;BME280;7003;46.982;15.248;2023-11-19T06:40:46;97280.13;;;0.03;100.00
13867;BME280;7003;46.982;15.248;2023-11-19T06:43:16;97288.28;;;0.07;100.00
13867;BME280;7003;46.982;15.248;2023-11-19T06:45:44;97288.50;;;0.00;100.00
13867;BME280;7003;46.982;15.248;2023-11-19T06:48:14;97292.66;;;0.01;100.00
13867;BME280;7003;46.982;15.248;2023-11-19T06:50:42;97287.97;;;0.03;100.00
13867;BME280;7003;46.982;15.248;2023-11-19T06:53:10;97281.22;;;0.12;100.00
13867;BME280;7003;46.982;15.248;2023-11-19T06:55:38;97287.56;;;0.21;100.00
13867;BME280;7003;46.982;15.248;2023-11-19T06:58:08;97293.34;;;0.33;100.00
13867;BME280;7003;46.982;15.248;2023-11-19T07:00:37;97293.91;;;0.41;100.00
13867;BME280;7003;46.982;15.248;2023-11-19T07:03:08;97296.72;;;0.24;100.00
13867;BME280;7003;46.982;15.248;2023-11-19T07:05:36;97301.13;;;0.13;100.00
13867;BME280;7003;46.982;15.248;2023-11-19T07:08:06;97306.38;;;0.18;100.00
13867;BME280;7003;46.982;15.248;2023-11-19T07:10:38;97305.88;;;0.26;100.00
13867;BME280;7003;46.982;15.248;2023-11-19T07:13:17;97300.22;;;0.50;100.00
13867;BME280;7003;46.982;15.248;2023-11-19T07:15:50;97298.19;;;0.62;100.00
13867;BME280;7003;46.982;15.248;2023-11-19T07:18:20;97303.44;;;0.72;100.00
13867;BME280;7003;46.982;15.248;2023-11-19T07:20:51;97309.25;;;0.89;100.00
13867;BME280;7003;46.982;15.248;2023-11-19T07:23:22;97315.06;;;1.06;100.00
13867;BME280;7003;46.982;15.248;2023-11-19T07:25:53;97310.31;;;1.03;100.00
13867;BME280;7003;46.982;15.248;2023-11-19T07:28:25;97296.47;;;1.18;100.00
13867;BME280;7003;46.982;15.248;2023-11-19T07:30:55;97290.16;;;1.24;100.00
13867;BME280;7003;46.982;15.248;2023-11-19T07:33:23;97283.38;;;1.23;100.00
13867;BME280;7003;46.982;15.248;2023-11-19T07:35:53;97256.13;;;1.14;100.00
13867;BME280;7003;46.982;15.248;2023-11-19T07:38:23;97245.63;;;1.19;100.00
13867;BME280;7003;46.982;15.248;2023-11-19T07:40:50;97239.63;;;1.13;100.00
13867;BME280;7003;46.982;15.248;2023-11-19T07:43:17;97229.66;;;1.05;100.00
13867;BME280;7003;46.982;15.248;2023-11-19T07:45:48;97250.59;;;1.10;100.00
13867;BME280;7003;46.982;15.248;2023-11-19T07:48:16;97271.31;;;1.27;100.00
13867;BME280;7003;46.982;15.248;2023-11-19T07:50:52;97284.69;;;1.31;100.00
13867;BME280;7003;46.982;15.248;2023-11-19T07:53:19;97275.75;;;1.42;100.00
13867;BME280;7003;46.982;15.248;2023-11-19T07:55:49;97288.09;;;1.46;100.00
13867;BME280;7003;46.982;15.248;2023-11-19T07:58:18;97288.88;;;1.57;100.00
13867;BME280;7003;46.982;15.248;2023-11-19T08:00:55;97290.44;;;1.58;100.00
13867;BME280;7003;46.982;15.248;2023-11-19T08:03:25;97279.44;;;1.61;100.00
13867;BME280;7003;46.982;15.248;2023-11-19T08:05:55;97276.28;;;1.64;100.00
13867;BME280;7003;46.982;15.248;2023-11-19T08:08:26;97266.47;;;2.10;100.00
13867;BME280;7003;46.982;15.248;2023-11-19T08:10:55;97266.63;;;2.44;100.00
13867;BME280;7003;46.982;15.248;2023-11-19T08:13:23;97268.03;;;2.76;100.00
13867;BME280;7003;46.982;15.248;2023-11-19T08:15:51;97272.84;;;3.02;100.00
13867;BME280;7003;46.982;15.248;2023-11-19T08:18:20;97262.06;;;3.09;100.00
13867;BME280;7003;46.982;15.248;2023-11-19T08:20:50;97258.44;;;3.34;100.00
13867;BME280;7003;46.982;15.248;2023-11-19T08:23:20;97244.56;;;3.57;100.00
13867;BME280;7003;46.982;15.248;2023-11-19T08:25:56;97243.28;;;4.07;100.00
13867;BME280;7003;46.982;15.248;2023-11-19T08:28:27;97237.53;;;4.48;100.00
13867;BME280;7003;46.982;15.248;2023-11-19T08:30:57;97237.75;;;4.89;100.00
13867;BME280;7003;46.982;15.248;2023-11-19T08:33:29;97233.53;;;5.25;100.00
13867;BME280;7003;46.982;15.248;2023-11-19T08:35:57;97239.91;;;5.70;100.00
13867;BME280;7003;46.982;15.248;2023-11-19T08:38:27;97249.16;;;6.14;100.00
13867;BME280;7003;46.982;15.248;2023-11-19T08:40:54;97259.03;;;6.63;100.00
13867;BME280;7003;46.982;15.248;2023-11-19T08:43:25;97233.97;;;6.97;100.00
13867;BME280;7003;46.982;15.248;2023-11-19T08:45:53;97235.50;;;7.11;100.00
13867;BME280;7003;46.982;15.248;2023-11-19T08:48:20;97220.22;;;7.30;100.00
13867;BME280;7003;46.982;15.248;2023-11-19T08:50:52;97217.59;;;7.61;100.00
13867;BME280;7003;46.982;15.248;2023-11-19T08:53:19;97222.41;;;7.59;100.00
13867;BME280;7003;46.982;15.248;2023-11-19T08:55:49;97211.22;;;7.93;100.00
13867;BME280;7003;46.982;15.248;2023-11-19T08:58:16;97206.88;;;8.06;100.00
13867;BME280;7003;46.982;15.248;2023-11-19T09:00:44;97191.34;;;7.73;100.00
13867;BME280;7003;46.982;15.248;2023-11-19T09:03:11;97194.03;;;7.29;100.00
13867;BME280;7003;46.982;15.248;2023-11-19T09:05:39;97204.56;;;7.20;100.00
13867;BME280;7003;46.982;15.248;2023-11-19T09:08:08;97222.41;;;6.92;100.00
13867;BME280;7003;46.982;15.248;2023-11-19T09:10:38;97228.19;;;6.58;100.00
13867;BME280;7003;46.982;15.248;2023-11-19T09:13:05;97224.31;;;6.42;100.00
13867;BME280;7003;46.982;15.248;2023-11-19T09:15:34;97216.81;;;6.72;100.00
13867;BME280;7003;46.982;15.248;2023-11-19T09:18:01;97197.25;;;6.59;100.00
13867;BME280;7003;46.982;15.248;2023-11-19T09:20:30;97205.03;;;6.78;100.00
13867;BME280;7003;46.982;15.248;2023-11-19T09:23:04;97196.25;;;6.69;100.00
13867;BME280;7003;46.982;15.248;2023-11-19T09:25:35;97204.81;;;6.88;100.00
13867;BME280;7003;46.982;15.248;2023-11-19T09:28:03;97191.34;;;6.76;100.00
13867;BME280;7003;46.982;15.248;2023-11-19T09:30:34;97181.69;;;6.93;100.00
13867;BME280;7003;46.982;15.248;2023-11-19T09:33:02;97167.03;;;6.87;100.00
13867;BME280;7003;46.982;15.248;2023-11-19T09:35:29;97168.59;;;6.88;100.00
13867;BME280;7003;46.982;15.248;2023-11-19T09:37:59;97172.47;;;6.91;100.00
13867;BME280;7003;46.982;15.248;2023-11-19T09:40:30;97185.97;;;7.96;100.00
13867;BME280;7003;46.982;15.248;2023-11-19T09:42:59;97152.97;;;8.02;100.00
13867;BME280;7003;46.982;15.248;2023-11-19T09:45:28;97163.41;;;8.72;100.00
13867;BME280;7003;46.982;15.248;2023-11-19T09:48:00;97115.50;;;8.77;100.00
13867;BME280;7003;46.982;15.248;2023-11-19T09:50:31;97146.09;;;9.47;100.00
13867;BME280;7003;46.982;15.248;2023-11-19T09:52:59;97141.22;;;9.96;100.00
13867;BME280;7003;46.982;15.248;2023-11-19T09:55:27;97150.19;;;10.21;90.42
13867;BME280;7003;46.982;15.248;2023-11-19T09:57:54;97131.25;;;10.22;88.16
13867;BME280;7003;46.982;15.248;2023-11-19T10:00:24;97138.38;;;10.01;85.08
13867;BME280;7003;46.982;15.248;2023-11-19T10:02:52;97112.47;;;9.98;81.42
13867;BME280;7003;46.982;15.248;2023-11-19T10:05:22;97132.56;;;9.78;82.15
13867;BME280;7003;46.982;15.248;2023-11-19T10:07:53;97112.16;;;9.06;88.39
13867;BME280;7003;46.982;15.248;2023-11-19T10:10:24;97117.84;;;8.62;86.99
13867;BME280;7003;46.982;15.248;2023-11-19T10:12:55;97100.94;;;7.97;95.04
13867;BME280;7003;46.982;15.248;2023-11-19T10:15:26;97086.97;;;7.26;100.00
13867;BME280;7003;46.982;15.248;2023-11-19T10:17:56;97079.53;;;7.37;100.00
13867;BME280;7003;46.982;15.248;2023-11-19T10:20:25;97078.09;;;7.70;100.00
13867;BME280;7003;46.982;15.248;2023-11-19T10:22:55;97076.31;;;8.14;100.00
13867;BME280;7003;46.982;15.248;2023-11-19T10:25:27;97073.81;;;8.86;100.00
13867;BME280;7003;46.982;15.248;2023-11-19T10:27:56;97066.41;;;9.18;87.49
13867;BME280;7003;46.982;15.248;2023-11-19T10:30:26;97059.50;;;9.93;91.88
13867;BME280;7003;46.982;15.248;2023-11-19T10:33:03;97059.06;;;10.74;87.80
13867;BME280;7003;46.982;15.248;2023-11-19T10:35:35;97058.91;;;10.91;73.05
13867;BME280;7003;46.982;15.248;2023-11-19T10:38:14;97072.53;;;11.59;69.06
13867;BME280;7003;46.982;15.248;2023-11-19T10:40:44;97060.56;;;11.53;64.99
13867;BME280;7003;46.982;15.248;2023-11-19T10:43:14;97056.16;;;12.33;58.72
13867;BME280;7003;46.982;15.248;2023-11-19T10:45:43;97043.16;;;12.60;58.83
13867;BME280;7003;46.982;15.248;2023-11-19T10:48:11;97043.31;;;12.95;57.76
13867;BME280;7003;46.982;15.248;2023-11-19T10:50:39;97025.41;;;13.39;55.05
13867;BME280;7003;46.982;15.248;2023-11-19T10:53:09;97022.97;;;12.47;56.92
13867;BME280;7003;46.982;15.248;2023-11-19T10:55:39;97016.06;;;12.30;60.28
13867;BME280;7003;46.982;15.248;2023-11-19T10:58:08;97025.47;;;12.00;59.56
13867;BME280;7003;46.982;15.248;2023-11-19T11:00:39;97013.03;;;11.55;56.67
13867;BME280;7003;46.982;15.248;2023-11-19T11:03:17;97019.19;;;12.20;59.40
13867;BME280;7003;46.982;15.248;2023-11-19T11:05:46;97004.75;;;12.21;54.37
13867;BME280;7003;46.982;15.248;2023-11-19T11:08:17;97006.00;;;12.39;57.51
13867;BME280;7003;46.982;15.248;2023-11-19T11:10:48;97007.78;;;13.69;52.16
13867;BME280;7003;46.982;15.248;2023-11-19T11:13:18;97018.53;;;13.73;50.31
13867;BME280;7003;46.982;15.248;2023-11-19T11:15:46;97014.53;;;14.17;48.42
13867;BME280;7003;46.982;15.248;2023-11-19T11:18:17;97006.66;;;12.92;52.07
13867;BME280;7003;46.982;15.248;2023-11-19T11:20:45;97009.00;;;13.91;52.12
13867;BME280;7003;46.982;15.248;2023-11-19T11:23:46;97002.09;;;15.06;48.73
13867;BME280;7003;46.982;15.248;2023-11-19T11:26:40;97003.03;;;15.17;52.18
13867;BME280;7003;46.982;15.248;2023-11-19T11:29:20;96987.50;;;14.22;49.13
13867;BME280;7003;46.982;15.248;2023-11-19T11:31:58;96993.34;;;15.09;48.51
13867;BME280;7003;46.982;15.248;2023-11-19T11:34:44;96977.38;;;15.16;46.80
13867;BME280;7003;46.982;15.248;2023-11-19T11:37:34;96977.16;;;15.51;46.96
13867;BME280;7003;46.982;15.248;2023-11-19T11:40:02;96973.72;;;15.27;46.06
13867;BME280;7003;46.982;15.248;2023-11-19T11:42:38;96977.88;;;16.00;47.96
13867;BME280;7003;46.982;15.248;2023-11-19T11:45:08;96973.38;;;16.75;45.35
13867;BME280;7003;46.982;15.248;2023-11-19T11:48:05;96975.00;;;17.27;44.22
13867;BME280;7003;46.982;15.248;2023-11-19T11:50:36;96964.19;;;16.76;45.35
13867;BME280;7003;46.982;15.248;2023-11-19T11:53:17;96965.31;;;17.63;42.09
13867;BME280;7003;46.982;15.248;2023-11-19T11:55:55;96950.03;;;17.81;40.64
13867;BME280;7003;46.982;15.248;2023-11-19T11:58:30;96953.34;;;18.33;39.86
13867;BME280;7003;46.982;15.248;2023-11-19T12:01:01;96955.41;;;17.78;42.14
13867;BME280;7003;46.982;15.248;2023-11-19T12:03:30;96936.50;;;18.50;39.75
13867;BME280;7003;46.982;15.248;2023-11-19T12:05:59;96956.94;;;17.75;38.69
13867;BME280;7003;46.982;15.248;2023-11-19T12:08:30;96946.13;;;17.68;41.35
13867;BME280;7003;46.982;15.248;2023-11-19T12:11:01;96947.72;;;16.81;39.10
13867;BME280;7003;46.982;15.248;2023-11-19T12:13:46;96934.22;;;17.14;41.35
13867;BME280;7003;46.982;15.248;2023-11-19T12:16:17;96933.91;;;16.79;39.43
13867;BME280;7003;46.982;15.248;2023-11-19T12:18:47;96929.63;;;16.37;42.62
13867;BME280;7003;46.982;15.248;2023-11-19T12:21:29;96919.84;;;15.89;41.65
13867;BME280;7003;46.982;15.248;2023-11-19T12:24:00;96928.06;;;15.69;44.89
13867;BME280;7003;46.982;15.248;2023-11-19T12:26:34;96927.34;;;16.39;41.54
13867;BME280;7003;46.982;15.248;2023-11-19T12:29:02;96930.47;;;15.78;44.10
13867;BME280;7003;46.982;15.248;2023-11-19T12:31:36;96925.38;;;16.03;42.75
13867;BME280;7003;46.982;15.248;2023-11-19T12:34:08;96919.53;;;16.27;41.37
13867;BME280;7003;46.982;15.248;2023-11-19T12:36:42;96921.63;;;15.51;42.17
13867;BME280;7003;46.982;15.248;2023-11-19T12:39:12;96922.28;;;14.92;43.50
13867;BME280;7003;46.982;15.248;2023-11-19T12:41:50;96916.91;;;14.46;45.16
13867;BME280;7003;46.982;15.248;2023-11-19T12:44:18;96924.03;;;15.07;44.01
13867;BME280;7003;46.982;15.248;2023-11-19T12:46:46;96905.44;;;14.91;43.24
13867;BME280;7003;46.982;15.248;2023-11-19T12:49:14;96894.41;;;15.49;43.44
13867;BME280;7003;46.982;15.248;2023-11-19T12:51:46;96912.72;;;14.94;45.69
13867;BME280;7003;46.982;15.248;2023-11-19T12:54:16;96893.03;;;15.89;43.23
13867;BME280;7003;46.982;15.248;2023-11-19T12:56:52;96916.69;;;16.13;43.00
13867;BME280;7003;46.982;15.248;2023-11-19T12:59:19;96910.81;;;16.00;41.91
13867;BME280;7003;46.982;15.248;2023-11-19T13:01:57;96905.13;;;16.42;42.27
13867;BME280;7003;46.982;15.248;2023-11-19T13:04:28;96901.56;;;15.94;43.83
13867;BME280;7003;46.982;15.248;2023-11-19T13:06:58;96908.56;;;16.06;42.21
13867;BME280;7003;46.982;15.248;2023-11-19T13:09:28;96917.94;;;15.89;42.10
13867;BME280;7003;46.982;15.248;2023-11-19T13:11:57;96923.88;;;16.02;40.61
13867;BME280;7003;46.982;15.248;2023-11-19T13:14:36;96914.16;;;15.11;41.97
13867;BME280;7003;46.982;15.248;2023-11-19T13:17:06;96892.63;;;15.30;42.06